ADDS METAR Data INFO
IDs: Format: Raw Decoded Include TAF

Data at: 1918 UTC 19 Jul 2018

KSCR 191855Z AUTO 06004KT 10SM CLR 30/15 A3007 RMK AO2 T03010147
KSCR 191835Z AUTO 00000KT 10SM CLR 30/14 A3007 RMK AO2 T02950143
KSCR 191815Z AUTO 00000KT 10SM CLR 29/14 A3007 RMK AO2 T02940142
KSCR 191755Z AUTO 06004KT 10SM CLR 30/15 A3007 RMK AO2 T02950148 10295 20176
KSCR 191735Z AUTO 05007KT 10SM CLR 30/15 A3008 RMK AO2 T02950150
KSCR 191715Z AUTO 09006KT 10SM CLR 29/14 A3008 RMK AO2 T02910144
KSCR 191655Z AUTO 05008KT 10SM CLR 29/15 A3008 RMK AO2 T02890147
KSCR 191635Z AUTO 07006KT 10SM CLR 28/15 A3009 RMK AO2 T02820145
KSCR 191615Z AUTO 11007KT 10SM CLR 27/13 A3009 RMK AO2 T02720133
KSCR 191555Z AUTO 07009KT 10SM CLR 26/13 A3009 RMK AO2 T02640128
KSCR 191535Z AUTO 06007KT 10SM CLR 27/14 A3010 RMK AO2 T02680135
KSCR 191515Z AUTO 09005KT 10SM CLR 27/15 A3010 RMK AO2 T02710150
KSCR 191455Z AUTO 06007KT 10SM CLR 27/15 A3010 RMK AO2 T02650149
KSCR 191435Z AUTO 06008KT 10SM CLR 26/15 A3010 RMK AO2 T02600148
KSCR 191415Z AUTO 08007KT 10SM CLR 24/14 A3010 RMK AO2 T02430140
KSCR 191355Z AUTO 06007KT 10SM CLR 25/15 A3010 RMK AO2 T02500149
KSCR 191335Z AUTO 06006KT 10SM CLR 25/16 A3009 RMK AO2 T02480156
KSCR 191315Z AUTO 06007KT 10SM CLR 24/16 A3009 RMK AO2 T02410157
KSCR 191255Z AUTO 06005KT 10SM CLR 23/16 A3008 RMK AO2 T02330157
KSCR 191235Z AUTO 05004KT 10SM CLR 23/16 A3008 RMK AO2 T02250157
KSCR 191215Z AUTO 05004KT 10SM CLR 21/15 A3008 RMK AO2 T02100150
KSCR 191155Z AUTO 00000KT 10SM CLR 17/12 A3007 RMK AO2 T01710116 10225 20163
KSCR 191135Z AUTO 06003KT 10SM CLR 18/13 A3007 RMK AO2 T01840133
KSCR 191115Z AUTO 07005KT 10SM CLR 19/15 A3006 RMK AO2 T01930150
KSCR 191055Z AUTO 05005KT 10SM CLR 18/14 A3005 RMK AO2 T01770138
KSCR 191035Z AUTO 04004KT 10SM CLR 17/14 A3004 RMK AO2 T01710140
KSCR 191015Z AUTO 05006KT 10SM CLR 18/14 A3004 RMK AO2 T01750140
KSCR 190955Z AUTO 00000KT 10SM CLR 16/14 A3003 RMK AO2 T01630135
KSCR 190935Z AUTO 00000KT 10SM CLR 18/14 A3003 RMK AO2 T01750143
KSCR 190915Z AUTO 00000KT 10SM CLR 18/15 A3003 RMK AO2 T01790147
KSCR 190855Z AUTO 00000KT 10SM CLR 17/15 A3002 RMK AO2 T01740150
KSCR 190835Z AUTO 00000KT 10SM CLR 18/16 A3002 RMK AO2 T01820158
KSCR 190815Z AUTO 00000KT 10SM CLR 19/16 A3002 RMK AO2 T01850160
KSCR 190755Z AUTO 00000KT 10SM SCT070 19/16 A3001 RMK AO2 T01930160
KSCR 190735Z AUTO 00000KT 10SM CLR 19/17 A3001 RMK AO2 T01930166
KSCR 190715Z AUTO 00000KT 10SM CLR 20/16 A3001 RMK AO2 T02010162
KSCR 190655Z AUTO 00000KT 10SM SCT085 21/16 A3002 RMK AO2 T02100159
KSCR 190635Z AUTO 00000KT 10SM SCT070 BKN085 21/17 A3002 RMK AO2 T02110165
KSCR 190615Z AUTO 03004KT 10SM SCT070 OVC085 22/17 A3002 RMK AO2 T02170166
KSCR 190555Z AUTO 00000KT 10SM OVC085 23/16 A3003 RMK AO2 T02250161 10267 20216 403010213
KSCR 190535Z AUTO 04004KT 10SM BKN085 23/16 A3002 RMK AO2 T02250161
KSCR 190515Z AUTO 07004KT 10SM SCT060 OVC085 23/16 A3002 RMK AO2 T02300162
KSCR 190455Z AUTO 06003KT 10SM SCT060 OVC075 23/17 A3003 RMK AO2 T02320166
KSCR 190435Z AUTO 09003KT 10SM BKN060 OVC075 23/17 A3002 RMK AO2 T02330165
KSCR 190415Z AUTO 06004KT 10SM BKN060 OVC085 23/17 A3001 RMK AO2 T02300168
KSCR 190355Z AUTO 00000KT 10SM BKN060 OVC070 24/17 A3001 RMK AO2 T02350171
KSCR 190335Z AUTO 08005KT 10SM BKN060 OVC070 24/17 A3001 RMK AO2 T02350170
KSCR 190315Z AUTO 05004KT 10SM BKN060 BKN070 23/17 A3000 RMK AO2 T02320173
KSCR 190255Z AUTO 05005KT 10SM CLR 22/17 A3000 RMK AO2 T02220174
KSCR 190235Z AUTO 05005KT 10SM CLR 22/18 A3000 RMK AO2 T02240175
KSCR 190215Z AUTO 05005KT 10SM SCT070 22/18 A2999 RMK AO2 T02180177
KSCR 190155Z AUTO 03003KT 10SM SCT070 BKN080 23/18 A2999 RMK AO2 T02310180
KSCR 190135Z AUTO 02003KT 10SM SCT080 23/18 A2998 RMK AO2 T02330181
KSCR 190115Z AUTO 00000KT 10SM CLR 24/18 A2998 RMK AO2 T02400182
KSCR 190055Z AUTO 03004KT 10SM SCT070 24/19 A2997 RMK AO2 T02350185
KSCR 190035Z AUTO 02004KT 10SM SCT070 24/19 A2996 RMK AO2 T02430187
KSCR 190015Z AUTO 03004KT 10SM CLR 25/19 A2996 RMK AO2 T02490191
KSCR 182355Z AUTO 08003KT 10SM CLR 27/19 A2996 RMK AO2 T02660191 10301 20266
KSCR 182335Z AUTO 05005KT 10SM CLR 28/19 A2996 RMK AO2 T02790185
KSCR 182315Z AUTO 07004KT 10SM CLR 29/18 A2996 RMK AO2 T02850182
KSCR 182255Z AUTO 08004KT 10SM CLR 29/18 A2995 RMK AO2 T02900182
KSCR 182235Z AUTO 07005KT 10SM CLR 29/18 A2995 RMK AO2 T02910184
KSCR 182215Z AUTO 06004KT 10SM CLR 30/18 A2994 RMK AO2 T02960182
KSCR 182155Z AUTO 04006KT 10SM CLR 30/18 A2994 RMK AO2 T02960182
KSCR 182135Z AUTO 04007KT 10SM CLR 30/18 A2994 RMK AO2 T03000184
KSCR 182115Z AUTO 08004KT 10SM CLR 30/18 A2994 RMK AO2 T03000184
KSCR 182055Z AUTO 10005KT 10SM CLR 30/19 A2994 RMK AO2 T03000185
KSCR 182035Z AUTO 07006KT 10SM CLR 30/19 A2995 RMK AO2 T02960188
KSCR 182015Z AUTO 07006KT 10SM CLR 30/19 A2996 RMK AO2 T02980188
KSCR 181955Z AUTO 05005KT 10SM CLR 30/18 A2996 RMK AO2 T02970183
KSCR 181935Z AUTO 00000KT 10SM CLR 30/18 A2997 RMK AO2 T02950181
KSCR 181915Z AUTO 03004KT 10SM CLR 30/18 A2997 RMK AO2 T02950181
KSCR 181855Z AUTO 03005KT 10SM SCT050 30/18 A2997 RMK AO2 T02960181
KSCR 181835Z AUTO 02007KT 10SM SCT050 30/18 A2998 RMK AO2 T02950181
KSCR 181815Z AUTO 05007KT 10SM CLR 29/19 A2998 RMK AO2 T02900186
KSCR 181755Z AUTO 35006KT 10SM CLR 29/19 A2998 RMK AO2 T02880191 10289 20230
KSCR 181735Z AUTO 05008KT 10SM SCT034 SCT044 29/20 A2998 RMK AO2 T02860198
KSCR 181715Z AUTO 00000KT 10SM SCT032 SCT050 28/20 A2999 RMK AO2 T02810200
KSCR 181655Z AUTO 04006KT 10SM SCT050 28/20 A3000 RMK AO2 T02770196
KSCR 181635Z AUTO 02005KT 10SM BKN050 27/20 A3000 RMK AO2 T02670200
KSCR 181615Z AUTO 36003KT 10SM SCT045 BKN050 BKN065 27/20 A3001 RMK AO2 T02670199
KSCR 181555Z AUTO 05008KT 10SM SCT025 BKN045 OVC050 27/19 A3001 RMK AO2 T02650194
KSCR 181535Z AUTO 04004KT 10SM BKN047 OVC050 26/21 A3001 RMK AO2 T02610205
KSCR 181515Z AUTO 04010KT 10SM OVC041 27/20 A3001 RMK AO2 T02670203
KSCR 181455Z AUTO 04008G15KT 10SM BKN039 BKN049 BKN070 26/20 A3001 RMK AO2 T02570201
KSCR 181435Z AUTO 04008G14KT 10SM SCT025 SCT039 BKN070 26/21 A3000 RMK AO2 T02620205
KSCR 181415Z AUTO 04008KT 10SM SCT037 BKN045 OVC070 26/20 A3001 RMK AO2 T02580202
KSCR 181355Z AUTO 04010KT 10SM SCT035 BKN043 OVC060 25/20 A3001 RMK AO2 T02520201
KSCR 181335Z AUTO 03008KT 10SM SCT036 BKN060 OVC110 25/21 A3000 RMK AO2 T02480206
KSCR 181315Z AUTO 03004KT 10SM SCT060 OVC110 25/22 A3000 RMK AO2 T02480217
KSCR 181255Z AUTO 02005KT 10SM SCT060 OVC100 24/21 A2999 RMK AO2 T02370212
KSCR 181235Z AUTO 03003KT 10SM BKN100 24/22 A2999 RMK AO2 T02370216
KSCR 181215Z AUTO 02004KT 10SM SCT100 23/22 A2998 RMK AO2 T02330218
KSCR 181155Z AUTO 02005KT 10SM BKN110 23/22 A2996 RMK AO2 7//// T02300220 10230 20213
KSCR 181135Z AUTO 02006KT 10SM OVC110 23/22 A2996 RMK AO2 T02290222
KSCR 181115Z AUTO 03006KT 10SM SCT007 OVC110 23/22 A2995 RMK AO2 T02270223
KSCR 181055Z AUTO 02003KT 7SM BKN007 OVC110 23/23 A2995 RMK AO2 T02270225
KSCR 181035Z AUTO 01004KT 7SM OVC005 23/23 A2994 RMK AO2 T02260225
KSCR 181015Z AUTO 03004KT 7SM OVC005 23/22 A2992 RMK AO2 T02250223
KSCR 180955Z AUTO 00000KT 7SM OVC005 22/22 A2991 RMK AO2 T02220220
KSCR 180935Z AUTO 01004KT 10SM BKN005 22/22 A2991 RMK AO2 T02210220
KSCR 180915Z AUTO 00000KT 10SM CLR 22/22 A2990 RMK AO2 T02160215
KSCR 180855Z AUTO 00000KT 7SM CLR 21/21 A2990 RMK AO2 T02130212
KSCR 180835Z AUTO 00000KT 7SM CLR 22/22 A2989 RMK AO2 T02170216
KSCR 180815Z AUTO 00000KT 7SM CLR 22/22 A2989 RMK AO2 T02200219
KSCR 180755Z AUTO 00000KT 4SM BR CLR 22/22 A2990 RMK AO2 T02200218
KSCR 180735Z AUTO 00000KT 10SM CLR 22/22 A2990 RMK AO2 T02210220